createdAt,value
2019-02-04T00:02:02.114Z,26.63
2019-02-04T00:04:33.335Z,23.07
2019-02-04T00:07:04.743Z,23.47
2019-02-04T00:09:37.765Z,22.67
2019-02-04T00:12:08.087Z,25.03
2019-02-04T00:14:38.393Z,25.20
2019-02-04T00:17:08.710Z,23.60
2019-02-04T00:19:38.983Z,24.63
2019-02-04T00:22:09.340Z,25.43
2019-02-04T00:24:39.742Z,25.73
2019-02-04T00:27:10.101Z,28.17
2019-02-04T00:29:40.418Z,27.77
2019-02-04T00:32:10.781Z,26.83
2019-02-04T00:34:41.128Z,26.97
2019-02-04T00:37:11.456Z,26.97
2019-02-04T00:39:41.755Z,25.43
2019-02-04T00:42:12.091Z,24.03
2019-02-04T00:44:42.389Z,26.93
2019-02-04T00:47:12.708Z,23.27
2019-02-04T00:49:43.225Z,24.70
2019-02-04T00:52:13.553Z,24.43
2019-02-04T00:54:43.855Z,22.20
2019-02-04T00:57:14.192Z,21.43
2019-02-04T00:59:44.500Z,22.03
2019-02-04T01:02:14.817Z,24.23
2019-02-04T01:04:45.110Z,19.37
2019-02-04T01:07:15.430Z,22.27
2019-02-04T01:09:45.727Z,20.13
2019-02-04T01:12:16.213Z,20.20
2019-02-04T01:14:46.514Z,20.40
2019-02-04T01:17:16.834Z,19.73
2019-02-04T01:19:47.136Z,20.30
2019-02-04T01:22:17.456Z,22.83
2019-02-04T01:24:48.152Z,23.80
2019-02-04T01:27:18.758Z,23.53
2019-02-04T01:29:49.275Z,23.53
2019-02-04T01:32:19.722Z,23.23
2019-02-04T01:34:50.095Z,22.97
2019-02-04T01:37:20.430Z,22.60
2019-02-04T01:39:50.750Z,26.77
2019-02-04T01:42:21.398Z,25.27
2019-02-04T01:44:51.711Z,24.63
2019-02-04T01:47:22.134Z,23.63
2019-02-04T01:49:52.444Z,28.53
2019-02-04T01:52:22.781Z,26.77
2019-02-04T01:54:53.099Z,26.63
2019-02-04T01:57:23.423Z,31.80
2019-02-04T01:59:53.716Z,25.20
2019-02-04T02:02:24.097Z,25.70
2019-02-04T02:04:54.625Z,26.60
2019-02-04T02:07:25.114Z,30.40
2019-02-04T02:09:55.553Z,27.07
2019-02-04T02:12:25.992Z,26.23
2019-02-04T02:14:56.674Z,25.43
2019-02-04T02:17:27.017Z,24.05
2019-02-04T02:19:57.398Z,25.70
2019-02-04T02:22:27.841Z,26.60
2019-02-04T02:24:58.205Z,27.20
2019-02-04T02:27:28.792Z,27.63
2019-02-04T02:29:59.249Z,30.77
2019-02-04T02:32:29.665Z,26.77
2019-02-04T02:35:00.489Z,31.80
2019-02-04T02:37:31.216Z,26.73
2019-02-04T02:40:01.659Z,30.27
2019-02-04T02:42:32.036Z,31.23
2019-02-04T02:45:02.430Z,37.60
2019-02-04T02:47:38.412Z,34.38
2019-02-04T02:50:05.371Z,35.40
2019-02-04T02:52:35.952Z,32.50
2019-02-04T02:55:08.307Z,39.33
2019-02-04T02:57:38.706Z,39.07
2019-02-04T03:00:12.278Z,40.17
2019-02-04T03:02:42.574Z,42.20
2019-02-04T03:05:13.987Z,41.53
2019-02-04T03:07:44.284Z,48.50
2019-02-04T03:10:17.492Z,42.53
2019-02-04T03:12:48.189Z,43.90
2019-02-04T03:15:18.623Z,43.67
2019-02-04T03:17:51.978Z,42.33
2019-02-04T03:20:21.087Z,46.37
2019-02-04T03:22:51.541Z,49.43
2019-02-04T03:25:22.927Z,52.17
2019-02-04T03:27:53.364Z,44.07
2019-02-04T03:30:25.960Z,42.90
2019-02-04T03:32:56.254Z,41.07
2019-02-04T03:35:26.597Z,42.47
2019-02-04T03:37:56.899Z,44.63
2019-02-04T03:40:29.627Z,47.90
2019-02-04T03:43:00.142Z,45.00
2019-02-04T03:45:30.454Z,43.13
2019-02-04T03:48:06.617Z,40.40
2019-02-04T03:50:32.743Z,39.70
2019-02-04T03:53:03.041Z,39.27
2019-02-04T03:55:33.368Z,44.37
2019-02-04T03:58:03.664Z,45.60
2019-02-04T04:00:36.061Z,45.53
2019-02-04T04:03:06.361Z,50.67
2019-02-04T04:05:36.830Z,52.47
2019-02-04T04:08:07.127Z,53.83
2019-02-04T04:10:37.473Z,50.70
2019-02-04T04:13:07.770Z,50.03
2019-02-04T04:15:38.089Z,48.10
2019-02-04T04:18:15.428Z,44.97
2019-02-04T04:20:40.386Z,45.57
2019-02-04T04:23:10.710Z,56.37
2019-02-04T04:25:41.053Z,45.63
2019-02-04T04:28:11.352Z,55.77
2019-02-04T04:30:41.799Z,52.73
2019-02-04T04:33:14.719Z,46.40
2019-02-04T04:35:47.342Z,50.30
2019-02-04T04:38:17.682Z,44.60
2019-02-04T04:40:48.137Z,46.20
2019-02-04T04:43:20.163Z,47.97
2019-02-04T04:45:50.469Z,50.43
2019-02-04T04:48:26.744Z,55.13
2019-02-04T04:50:52.911Z,52.40
2019-02-04T04:53:23.283Z,56.63
2019-02-04T04:55:53.905Z,52.67
2019-02-04T04:58:24.208Z,52.80
2019-02-04T05:00:54.647Z,53.48
2019-02-04T05:03:25.159Z,59.33
2019-02-04T05:05:55.462Z,56.53
2019-02-04T05:08:28.514Z,62.97
2019-02-04T05:10:58.868Z,56.03
2019-02-04T05:13:29.201Z,47.80
2019-02-04T05:15:59.544Z,53.77
2019-02-04T05:18:38.167Z,50.60
2019-02-04T05:21:09.680Z,54.67
2019-02-04T05:23:40.062Z,50.73
2019-02-04T05:26:10.523Z,50.43
2019-02-04T05:28:40.834Z,46.10
2019-02-04T05:31:11.177Z,63.13
2019-02-04T05:33:43.982Z,52.93
2019-02-04T05:36:14.479Z,53.70
2019-02-04T05:38:44.853Z,61.13
2019-02-04T05:41:15.197Z,57.33
2019-02-04T05:43:45.565Z,60.93
2019-02-04T05:46:16.101Z,60.60
2019-02-04T05:48:49.332Z,67.40
2019-02-04T05:51:19.582Z,48.23
2019-02-04T05:53:51.129Z,62.13
2019-02-04T05:56:21.462Z,66.43
2019-02-04T05:58:54.901Z,60.40
2019-02-04T06:01:25.241Z,64.50
2019-02-04T06:03:55.549Z,149.50
2019-02-04T06:06:25.901Z,302.03
2019-02-04T06:08:56.284Z,341.10
2019-02-04T06:11:26.941Z,173.37
2019-02-04T06:13:57.241Z,103.83
2019-02-04T06:16:27.614Z,103.17
2019-02-04T06:19:01.078Z,67.77
2019-02-04T06:21:29.889Z,75.77
2019-02-04T06:24:00.598Z,91.37
2019-02-04T06:26:31.162Z,63.95
2019-02-04T06:29:01.474Z,92.73
2019-02-04T06:31:31.869Z,71.80
2019-02-04T06:34:02.187Z,92.17
2019-02-04T06:36:32.580Z,84.93
2019-02-04T06:39:03.838Z,103.90
2019-02-04T06:41:35.433Z,94.20
2019-02-04T06:44:05.735Z,98.37
2019-02-04T06:46:36.073Z,96.93
2019-02-04T06:49:12.382Z,73.80
2019-02-04T06:51:38.373Z,81.63
2019-02-04T06:54:08.671Z,80.73
2019-02-04T06:56:38.999Z,72.73
2019-02-04T06:59:09.298Z,69.40
2019-02-04T07:01:39.608Z,74.43
2019-02-04T07:04:10.327Z,75.43
2019-02-04T07:06:40.728Z,72.50
2019-02-04T07:09:12.157Z,76.33
2019-02-04T07:11:42.495Z,74.87
2019-02-04T07:14:12.798Z,63.87
2019-02-04T07:16:43.154Z,62.70
2019-02-04T07:19:23.911Z,62.30
2019-02-04T07:21:45.422Z,63.57
2019-02-04T07:24:15.737Z,64.33
2019-02-04T07:26:47.140Z,62.43
2019-02-04T07:29:17.439Z,61.27
2019-02-04T07:31:48.178Z,61.13
2019-02-04T07:34:18.482Z,57.17
2019-02-04T07:36:48.818Z,56.90
2019-02-04T07:39:19.172Z,55.13
2019-02-04T07:41:49.494Z,45.63
2019-02-04T07:44:19.832Z,48.27
2019-02-04T07:46:50.142Z,46.97
2019-02-04T07:49:20.437Z,56.90
2019-02-04T07:51:50.758Z,46.60
2019-02-04T07:54:21.064Z,47.60
2019-02-04T07:56:51.393Z,54.47
2019-02-04T07:59:21.917Z,47.80
2019-02-04T08:01:52.394Z,61.73
2019-02-04T08:04:22.743Z,49.50
2019-02-04T08:06:53.138Z,42.27
2019-02-04T08:09:23.621Z,44.60
2019-02-04T08:11:54.492Z,44.63
2019-02-04T08:14:24.852Z,45.40
2019-02-04T08:16:55.471Z,51.07
2019-02-04T08:19:25.872Z,44.60
2019-02-04T08:21:56.215Z,62.50
2019-02-04T08:24:26.658Z,48.33
2019-02-04T08:26:56.990Z,39.70
2019-02-04T08:29:27.372Z,42.40
2019-02-04T08:31:57.974Z,48.30
2019-02-04T08:34:28.283Z,75.20
2019-02-04T08:36:58.619Z,76.97
2019-02-04T08:39:29.155Z,57.17
2019-02-04T08:41:59.496Z,59.83
2019-02-04T08:44:30.718Z,70.37
2019-02-04T08:47:01.046Z,65.30
2019-02-04T08:49:31.358Z,42.50
2019-02-04T08:52:01.747Z,39.03
2019-02-04T08:54:32.046Z,31.57
2019-02-04T08:57:02.472Z,35.80
2019-02-04T08:59:33.958Z,32.93
2019-02-04T09:02:04.668Z,32.40
2019-02-04T09:04:37.005Z,27.67
2019-02-04T09:07:06.961Z,28.90
2019-02-04T09:09:37.268Z,25.77
2019-02-04T09:12:08.297Z,25.53
2019-02-04T09:14:38.720Z,24.90
2019-02-04T09:17:09.074Z,29.83
2019-02-04T09:19:40.460Z,25.60
2019-02-04T09:22:10.884Z,26.17
2019-02-04T09:24:41.170Z,24.97
2019-02-04T09:27:11.471Z,24.33
2019-02-04T09:29:41.966Z,25.83
2019-02-04T09:32:12.427Z,25.77
2019-02-04T09:34:42.816Z,21.17
2019-02-04T09:37:13.245Z,21.10
2019-02-04T09:39:46.311Z,22.53
2019-02-04T09:42:15.625Z,21.67
2019-02-04T09:44:45.983Z,18.97
2019-02-04T09:47:17.242Z,18.73
2019-02-04T09:49:47.751Z,18.13
2019-02-04T09:52:18.936Z,19.17
2019-02-04T09:54:49.230Z,16.50
2019-02-04T09:57:19.714Z,17.37
2019-02-04T09:59:50.060Z,15.93
2019-02-04T10:02:21.021Z,16.83
2019-02-04T10:04:51.330Z,16.97
2019-02-04T10:07:21.651Z,17.30
2019-02-04T10:09:51.954Z,16.13
2019-02-04T10:12:22.292Z,16.70
2019-02-04T10:14:52.606Z,16.50
2019-02-04T10:17:22.959Z,15.23
2019-02-04T10:19:53.269Z,15.17
2019-02-04T10:22:23.602Z,14.83
2019-02-04T10:24:53.925Z,12.93
2019-02-04T10:27:24.259Z,13.83
2019-02-04T10:29:54.556Z,15.23
2019-02-04T10:32:24.910Z,13.20
2019-02-04T10:34:55.166Z,12.80
2019-02-04T10:37:25.558Z,12.60
2019-02-04T10:39:55.963Z,71.67
2019-02-04T10:42:26.596Z,15.00
2019-02-04T10:44:56.906Z,15.67
2019-02-04T10:47:27.279Z,14.83
2019-02-04T10:49:57.661Z,11.83
2019-02-04T10:52:28.023Z,13.23
2019-02-04T10:54:58.322Z,17.40
2019-02-04T10:57:39.359Z,11.43
2019-02-04T11:00:00.588Z,11.40
2019-02-04T11:02:31.449Z,11.23
2019-02-04T11:05:01.746Z,9.30
2019-02-04T11:07:32.093Z,9.10
2019-02-04T11:10:02.811Z,9.10
2019-02-04T11:12:33.080Z,9.17
2019-02-04T11:15:03.404Z,9.23
2019-02-04T11:17:33.774Z,8.50
2019-02-04T11:20:05.485Z,5.77
2019-02-04T11:22:36.302Z,5.57
2019-02-04T11:25:07.135Z,6.87
2019-02-04T11:27:37.614Z,11.23
2019-02-04T11:30:14.425Z,5.33
2019-02-04T11:32:44.809Z,5.45
2019-02-04T11:35:15.776Z,5.90
2019-02-04T11:37:46.200Z,6.60
2019-02-04T11:40:20.098Z,8.10
2019-02-04T11:42:50.914Z,6.83
2019-02-04T11:45:21.249Z,10.40
2019-02-04T11:47:52.613Z,9.83
2019-02-04T11:50:22.873Z,7.23
2019-02-04T11:52:53.594Z,6.27
2019-02-04T11:55:23.903Z,6.87
2019-02-04T11:57:54.303Z,6.10
2019-02-04T12:00:26.412Z,7.57
2019-02-04T12:02:57.887Z,5.57
2019-02-04T12:05:28.306Z,5.77
2019-02-04T12:07:58.637Z,6.42
2019-02-04T12:10:52.637Z,6.17
2019-02-04T12:13:22.961Z,6.53
2019-02-04T12:15:54.011Z,6.00
2019-02-04T12:18:24.461Z,6.03
2019-02-04T12:20:54.877Z,5.40
2019-02-04T12:23:25.660Z,5.50
2019-02-04T12:25:56.256Z,5.60
2019-02-04T12:28:26.611Z,7.37
2019-02-04T12:30:57.040Z,5.83
2019-02-04T12:33:27.417Z,6.20
2019-02-04T12:35:58.262Z,5.97
2019-02-04T12:38:28.679Z,6.97
2019-02-04T12:40:59.069Z,5.10
2019-02-04T12:43:29.420Z,5.37
2019-02-04T12:45:59.873Z,5.70
2019-02-04T12:48:30.247Z,5.47
2019-02-04T12:51:00.602Z,5.50
2019-02-04T12:53:31.003Z,5.20
2019-02-04T12:56:01.382Z,4.40
2019-02-04T12:58:31.810Z,3.00
2019-02-04T13:01:02.102Z,3.77
2019-02-04T13:03:32.910Z,3.23
2019-02-04T13:06:04.475Z,6.00
2019-02-04T13:08:34.853Z,3.77
2019-02-04T13:11:05.562Z,4.17
2019-02-04T13:13:36.097Z,3.93
2019-02-04T13:16:06.938Z,3.40
2019-02-04T13:18:37.289Z,3.30
2019-02-04T13:21:07.608Z,3.20
2019-02-04T13:23:37.988Z,3.50
2019-02-04T13:26:08.299Z,4.43
2019-02-04T13:28:38.694Z,3.80
2019-02-04T13:31:09.004Z,3.77
2019-02-04T13:33:39.374Z,2.90
2019-02-04T13:36:09.805Z,3.30
2019-02-04T13:38:40.320Z,3.97
2019-02-04T13:41:10.734Z,4.30
2019-02-04T13:43:42.147Z,3.70
2019-02-04T13:46:12.570Z,4.30
2019-02-04T13:48:42.998Z,3.43
2019-02-04T13:51:13.449Z,3.40
2019-02-04T13:53:43.906Z,3.47
2019-02-04T13:56:14.607Z,3.30
2019-02-04T13:58:45.016Z,3.00
2019-02-04T14:01:15.724Z,3.10
2019-02-04T14:03:48.366Z,4.40
2019-02-04T14:06:18.058Z,4.07
2019-02-04T14:08:48.953Z,3.42
2019-02-04T14:11:19.353Z,3.27
2019-02-04T14:13:50.087Z,4.20
2019-02-04T14:16:21.029Z,3.60
2019-02-04T14:18:51.667Z,3.60
2019-02-04T14:21:22.303Z,3.40
2019-02-04T14:23:52.799Z,4.23
2019-02-04T14:26:23.121Z,6.53
2019-02-04T14:28:54.152Z,6.80
2019-02-04T14:31:24.531Z,7.23
2019-02-04T14:33:57.976Z,6.20
2019-02-04T14:36:27.099Z,7.77
2019-02-04T14:38:59.181Z,6.70
2019-02-04T14:41:30.299Z,7.17
2019-02-04T14:44:13.921Z,7.40
2019-02-04T14:47:12.245Z,9.77
2019-02-04T14:50:24.195Z,8.10
2019-02-04T14:53:50.697Z,8.87
2019-02-04T14:56:59.023Z,9.17
2019-02-04T14:59:51.066Z,8.07
2019-02-04T15:02:46.277Z,9.17
2019-02-04T15:05:30.405Z,14.03
2019-02-04T15:08:52.523Z,10.67
2019-02-04T15:12:13.249Z,9.90
2019-02-04T15:15:14.046Z,11.60
2019-02-04T15:18:31.501Z,11.87
2019-02-04T15:21:29.813Z,9.60
2019-02-04T15:24:20.158Z,11.23
2019-02-04T15:27:46.881Z,7.60
2019-02-04T15:30:49.419Z,8.50
2019-02-04T15:33:55.216Z,10.70
2019-02-04T15:37:09.638Z,13.60
2019-02-04T15:40:11.689Z,12.03
2019-02-04T15:43:39.312Z,12.50
2019-02-04T15:46:28.528Z,10.23
2019-02-04T15:49:50.783Z,10.70
2019-02-04T15:52:21.021Z,14.93
2019-02-04T15:54:51.426Z,17.33
2019-02-04T15:57:22.119Z,22.40
2019-02-04T15:59:52.524Z,17.97
2019-02-04T16:02:22.986Z,17.40
2019-02-04T16:04:53.310Z,17.83
2019-02-04T16:07:24.006Z,16.97
2019-02-04T16:09:55.054Z,21.67
2019-02-04T16:12:25.450Z,25.50
2019-02-04T16:14:56.895Z,19.77
2019-02-04T16:17:27.315Z,26.33
2019-02-04T16:19:57.653Z,25.90
2019-02-04T16:22:28.027Z,23.87
2019-02-04T16:24:58.351Z,23.07
2019-02-04T16:27:28.826Z,24.67
2019-02-04T16:29:59.137Z,23.30
2019-02-04T16:32:29.523Z,24.57
2019-02-04T16:34:59.891Z,23.23
2019-02-04T16:37:30.688Z,24.67
2019-02-04T16:40:01.034Z,33.03
2019-02-04T16:42:32.787Z,36.43
2019-02-04T16:45:03.100Z,32.20
2019-02-04T16:47:33.472Z,27.10
2019-02-04T16:50:05.498Z,25.43
2019-02-04T16:52:35.903Z,21.57
2019-02-04T16:55:06.631Z,19.77
2019-02-04T16:57:37.001Z,22.70
2019-02-04T17:00:08.734Z,17.73
2019-02-04T17:02:39.124Z,25.03
2019-02-04T17:05:11.305Z,29.53
2019-02-04T17:07:41.709Z,31.30
2019-02-04T17:10:17.738Z,30.43
2019-02-04T17:12:48.580Z,21.67
2019-02-04T17:15:19.100Z,19.57
2019-02-04T17:17:49.559Z,21.73
2019-02-04T17:20:25.669Z,26.33
2019-02-04T17:22:56.169Z,24.03
2019-02-04T17:25:27.249Z,22.37
2019-02-04T17:27:57.823Z,14.53
2019-02-04T17:30:28.259Z,16.33
2019-02-04T17:32:58.847Z,19.20
2019-02-04T17:35:29.218Z,15.23
2019-02-04T17:37:59.712Z,11.43
2019-02-04T17:40:31.446Z,15.77
2019-02-04T17:43:02.101Z,14.80
2019-02-04T17:45:32.416Z,11.93
2019-02-04T17:48:02.905Z,12.10
2019-02-04T17:50:33.378Z,11.03
2019-02-04T17:53:03.909Z,10.00
2019-02-04T17:55:34.755Z,9.93
2019-02-04T17:58:05.598Z,10.73
2019-02-04T18:00:39.427Z,11.10
2019-02-04T18:03:10.075Z,11.97
2019-02-04T18:05:40.438Z,10.97
2019-02-04T18:08:10.747Z,11.10
2019-02-04T18:10:41.186Z,10.90
2019-02-04T18:13:11.744Z,12.57
2019-02-04T18:15:42.070Z,14.13
2019-02-04T18:18:12.839Z,19.73
2019-02-04T18:20:43.159Z,15.37
2019-02-04T18:23:13.566Z,12.27
2019-02-04T18:25:43.882Z,39.70
2019-02-04T18:28:14.289Z,18.73
2019-02-04T18:30:44.599Z,14.30
2019-02-04T18:33:15.035Z,16.83
2019-02-04T18:35:45.414Z,23.90
2019-02-04T18:38:15.921Z,26.30
2019-02-04T18:40:46.548Z,15.53
2019-02-04T18:43:21.023Z,14.83
2019-02-04T18:45:52.314Z,16.50
2019-02-04T18:48:22.732Z,14.67
2019-02-04T18:50:53.061Z,17.87
2019-02-04T18:53:23.436Z,24.47
2019-02-04T18:55:53.781Z,24.83
2019-02-04T18:58:24.211Z,23.80
2019-02-04T19:00:54.545Z,25.13
2019-02-04T19:03:24.969Z,29.03
2019-02-04T19:05:55.297Z,24.13
2019-02-04T19:08:25.723Z,21.37
2019-02-04T19:10:56.134Z,21.30
2019-02-04T19:13:35.725Z,23.73
2019-02-04T19:15:59.949Z,18.27
2019-02-04T19:18:31.035Z,21.10
2019-02-04T19:21:01.338Z,29.27
2019-02-04T19:23:31.906Z,29.10
2019-02-04T19:26:03.672Z,19.93
2019-02-04T19:28:33.994Z,37.43
2019-02-04T19:31:11.886Z,37.67
2019-02-04T19:33:42.211Z,25.53
2019-02-04T19:36:12.588Z,20.63
2019-02-04T19:38:43.222Z,22.40
2019-02-04T19:41:13.627Z,38.80
2019-02-04T19:43:44.048Z,25.00
2019-02-04T19:46:14.445Z,19.80
2019-02-04T19:48:44.773Z,23.90
2019-02-04T19:51:18.207Z,23.23
2019-02-04T19:53:48.649Z,23.33
2019-02-04T19:56:19.053Z,22.13
2019-02-04T19:58:49.370Z,18.27
2019-02-04T20:01:19.865Z,16.73
2019-02-04T20:03:50.336Z,16.13
2019-02-04T20:06:21.424Z,17.10
2019-02-04T20:08:51.930Z,14.60
2019-02-04T20:11:22.342Z,17.73
2019-02-04T20:13:52.956Z,17.30
2019-02-04T20:16:23.367Z,53.40
2019-02-04T20:18:54.222Z,19.30
2019-02-04T20:21:24.621Z,20.17
2019-02-04T20:23:55.242Z,21.83
2019-02-04T20:26:25.643Z,15.73
2019-02-04T20:28:56.037Z,16.67
2019-02-04T20:31:27.559Z,15.20
2019-02-04T20:33:57.944Z,30.73
2019-02-04T20:36:29.359Z,19.57
2019-02-04T20:38:59.830Z,17.50
2019-02-04T20:41:30.266Z,38.37
2019-02-04T20:44:00.590Z,21.53
2019-02-04T20:46:31.375Z,30.80
2019-02-04T20:49:01.754Z,29.73
2019-02-04T20:51:32.179Z,29.30
2019-02-04T20:54:02.697Z,17.83
2019-02-04T20:56:33.923Z,19.77
2019-02-04T20:59:04.963Z,21.33
2019-02-04T21:01:35.576Z,19.63
2019-02-04T21:04:06.027Z,21.07
2019-02-04T21:06:36.497Z,19.27
2019-02-04T21:09:09.256Z,17.20
2019-02-04T21:11:39.759Z,16.47
2019-02-04T21:14:10.153Z,17.23
2019-02-04T21:16:40.631Z,14.87
2019-02-04T21:19:11.166Z,17.50
2019-02-04T21:21:41.691Z,16.07
2019-02-04T21:24:12.027Z,15.13
2019-02-04T21:26:42.865Z,16.20
2019-02-04T21:29:13.197Z,12.77
2019-02-04T21:31:43.630Z,15.33
2019-02-04T21:34:14.162Z,14.23
2019-02-04T21:36:44.693Z,17.93
2019-02-04T21:39:15.300Z,16.00
2019-02-04T21:41:45.853Z,14.97
2019-02-04T21:44:17.366Z,14.10
2019-02-04T21:46:47.873Z,15.53
2019-02-04T21:49:18.208Z,13.90
2019-02-04T21:51:48.653Z,14.20
2019-02-04T21:54:19.456Z,12.57
2019-02-04T21:56:49.924Z,13.90
2019-02-04T21:59:20.504Z,12.83
2019-02-04T22:01:50.959Z,12.60
2019-02-04T22:04:21.808Z,13.03
2019-02-04T22:06:52.578Z,11.43
2019-02-04T22:09:23.406Z,12.13
2019-02-04T22:11:54.042Z,12.23
2019-02-04T22:14:24.585Z,13.07
2019-02-04T22:16:55.189Z,12.23
2019-02-04T22:19:25.628Z,12.60
2019-02-04T22:21:56.215Z,12.10
2019-02-04T22:24:26.801Z,14.13
2019-02-04T22:26:57.273Z,14.03
2019-02-04T22:29:27.742Z,14.63
2019-02-04T22:31:58.321Z,16.37
2019-02-04T22:34:29.279Z,17.83
2019-02-04T22:37:00.073Z,15.37
2019-02-04T22:39:30.486Z,16.10
2019-02-04T22:42:00.829Z,13.13
2019-02-04T22:44:31.191Z,15.87
2019-02-04T22:47:01.512Z,14.60
2019-02-04T22:49:32.210Z,13.90
2019-02-04T22:52:02.547Z,13.83
2019-02-04T22:54:32.914Z,15.10
2019-02-04T22:57:03.226Z,18.60
2019-02-04T22:59:33.550Z,16.77
2019-02-04T23:02:08.587Z,13.08
2019-02-04T23:04:38.912Z,15.05
2019-02-04T23:07:09.423Z,14.73
2019-02-04T23:09:39.906Z,13.53
2019-02-04T23:12:10.252Z,11.80
2019-02-04T23:14:40.580Z,12.07
2019-02-04T23:17:10.910Z,12.33
2019-02-04T23:19:41.208Z,13.73
2019-02-04T23:22:11.603Z,12.50
2019-02-04T23:24:41.944Z,12.80
2019-02-04T23:27:12.539Z,12.73
2019-02-04T23:29:42.881Z,11.80
2019-02-04T23:32:14.746Z,13.10
2019-02-04T23:34:44.998Z,11.63
2019-02-04T23:37:15.568Z,14.43
2019-02-04T23:39:45.876Z,14.33
2019-02-04T23:42:17.102Z,15.50
2019-02-04T23:44:47.413Z,15.67
2019-02-04T23:47:17.813Z,17.10
2019-02-04T23:49:48.198Z,13.67
2019-02-04T23:52:18.559Z,13.78
2019-02-04T23:54:49.033Z,13.70
2019-02-04T23:57:19.427Z,12.63
2019-02-04T23:59:51.513Z,12.53
